createdAt,value
2022-11-09T00:02:44.113Z,70.79
2022-11-09T00:06:48.975Z,70.78
2022-11-09T00:10:52.195Z,70.83
2022-11-09T00:14:55.618Z,70.48
2022-11-09T00:18:59.252Z,70.61
2022-11-09T00:23:03.990Z,70.89
2022-11-09T00:27:07.386Z,70.90
2022-11-09T00:31:14.453Z,71.31
2022-11-09T00:35:17.803Z,71.03
2022-11-09T00:39:22.652Z,71.06
2022-11-09T00:43:26.211Z,70.68
2022-11-09T00:47:29.245Z,70.83
2022-11-09T00:51:32.753Z,70.75
2022-11-09T00:55:37.850Z,70.82
2022-11-09T00:59:40.998Z,71.00
2022-11-09T01:03:45.585Z,70.86
2022-11-09T01:07:49.097Z,70.63
2022-11-09T01:11:53.494Z,70.96
2022-11-09T01:15:56.892Z,71.09
2022-11-09T01:20:00.343Z,70.95
2022-11-09T01:24:03.843Z,71.38
2022-11-09T01:28:10.136Z,71.40
2022-11-09T01:32:13.161Z,71.42
2022-11-09T01:36:18.970Z,71.08
2022-11-09T01:40:22.331Z,71.28
2022-11-09T01:44:29.031Z,71.07
2022-11-09T01:48:38.728Z,71.09
2022-11-09T01:52:45.477Z,71.24
2022-11-09T01:56:50.442Z,71.43
2022-11-09T02:01:00.943Z,71.25
2022-11-09T02:05:09.816Z,71.29
2022-11-09T02:09:20.344Z,71.26
2022-11-09T02:13:28.437Z,71.31
2022-11-09T02:17:34.357Z,71.27
2022-11-09T02:21:39.270Z,71.33
2022-11-09T02:25:43.027Z,71.28
2022-11-09T02:29:48.470Z,70.93
2022-11-09T02:33:55.701Z,71.25
2022-11-09T02:38:00.880Z,71.35
2022-11-09T02:42:10.426Z,71.36
2022-11-09T02:46:14.036Z,71.36
2022-11-09T02:50:17.802Z,71.31
2022-11-09T02:54:22.467Z,71.17
2022-11-09T02:58:25.875Z,71.24
2022-11-09T03:02:29.381Z,71.44
2022-11-09T03:06:36.007Z,71.32
2022-11-09T03:10:40.597Z,71.57
2022-11-09T03:14:44.066Z,71.66
2022-11-09T03:18:47.544Z,71.76
2022-11-09T03:22:50.580Z,71.91
2022-11-09T03:26:55.677Z,71.81
2022-11-09T03:30:58.882Z,71.83
2022-11-09T03:35:02.389Z,71.93
2022-11-09T03:39:05.947Z,71.85
2022-11-09T03:43:10.412Z,71.81
2022-11-09T03:47:14.095Z,72.18
2022-11-09T03:51:17.527Z,72.05
2022-11-09T03:55:20.906Z,72.43
2022-11-09T03:59:25.771Z,72.18
2022-11-09T04:03:29.484Z,72.00
2022-11-09T04:07:32.567Z,71.87
2022-11-09T04:11:36.319Z,72.03
2022-11-09T04:15:42.288Z,71.85
2022-11-09T04:19:45.445Z,71.64
2022-11-09T04:23:50.288Z,71.75
2022-11-09T04:27:57.634Z,71.81
2022-11-09T04:32:02.271Z,71.36
2022-11-09T04:36:06.369Z,71.64
2022-11-09T04:40:11.212Z,71.82
2022-11-09T04:44:14.261Z,71.94
2022-11-09T04:48:19.120Z,71.63
2022-11-09T04:52:22.866Z,71.85
2022-11-09T04:56:25.811Z,71.86
2022-11-09T05:00:29.362Z,72.12
2022-11-09T05:04:33.923Z,71.90
2022-11-09T05:08:37.405Z,72.27
2022-11-09T05:12:45.856Z,72.28
2022-11-09T05:16:49.182Z,72.34
2022-11-09T05:20:54.078Z,72.42
2022-11-09T05:24:57.559Z,72.13
2022-11-09T05:29:01.135Z,71.83
2022-11-09T05:33:05.427Z,71.61
2022-11-09T05:37:10.393Z,71.42
2022-11-09T05:41:13.676Z,71.22
2022-11-09T05:45:41.505Z,71.43
2022-11-09T05:49:43.152Z,71.53
2022-11-09T05:53:48.008Z,71.30
2022-11-09T05:57:51.048Z,71.18
2022-11-09T06:01:55.678Z,71.31
2022-11-09T06:06:07.860Z,71.45
2022-11-09T06:10:13.406Z,71.42
2022-11-09T06:14:16.973Z,71.63
2022-11-09T06:18:20.345Z,71.46
2022-11-09T06:22:23.748Z,72.05
2022-11-09T06:26:28.221Z,72.16
2022-11-09T06:34:56.304Z,72.07
2022-11-09T06:38:59.779Z,72.00
2022-11-09T06:43:05.481Z,72.02
2022-11-09T06:47:08.826Z,71.83
2022-11-09T06:51:13.453Z,71.78
2022-11-09T06:55:17.143Z,71.84
2022-11-09T06:59:21.585Z,72.16
2022-11-09T07:03:25.757Z,72.31
2022-11-09T07:07:29.514Z,72.16
2022-11-09T07:11:32.517Z,72.14
2022-11-09T07:15:38.931Z,71.88
2022-11-09T07:19:42.720Z,72.27
2022-11-09T07:23:48.058Z,72.09
2022-11-09T07:27:51.713Z,71.88
2022-11-09T07:31:56.532Z,71.83
2022-11-09T07:36:00.679Z,71.94
2022-11-09T07:40:04.140Z,71.44
2022-11-09T07:44:07.845Z,71.63
2022-11-09T07:48:13.324Z,71.21
2022-11-09T07:52:17.146Z,70.91
2022-11-09T07:56:20.746Z,70.90
2022-11-09T08:00:24.479Z,70.92
2022-11-09T08:04:29.476Z,70.68
2022-11-09T08:08:32.958Z,70.86
2022-11-09T08:12:37.379Z,70.60
2022-11-09T08:16:41.235Z,71.05
2022-11-09T08:20:46.299Z,71.15
2022-11-09T08:24:49.436Z,70.55
2022-11-09T08:28:52.387Z,71.13
2022-11-09T08:32:55.618Z,70.89
2022-11-09T08:37:05.714Z,70.56
2022-11-09T08:41:13.261Z,70.11
2022-11-09T08:45:17.300Z,70.46
2022-11-09T08:49:20.489Z,69.78
2022-11-09T08:53:25.966Z,69.56
2022-11-09T08:57:30.214Z,69.49
2022-11-09T09:01:33.222Z,68.97
2022-11-09T09:05:37.686Z,69.08
2022-11-09T09:09:42.926Z,68.67
2022-11-09T09:13:46.712Z,68.48
2022-11-09T09:17:50.252Z,68.59
2022-11-09T09:21:55.500Z,68.14
2022-11-09T09:26:00.771Z,68.81
2022-11-09T09:30:04.523Z,69.32
2022-11-09T09:34:08.294Z,69.03
2022-11-09T09:38:11.889Z,69.16
2022-11-09T09:42:20.231Z,69.13
2022-11-09T09:46:28.553Z,68.73
2022-11-09T09:50:38.373Z,68.59
2022-11-09T09:54:45.381Z,68.48
2022-11-09T09:58:57.506Z,67.69
2022-11-09T10:03:02.369Z,66.97
2022-11-09T10:07:15.185Z,67.62
2022-11-09T10:11:26.070Z,68.86
2022-11-09T10:15:34.067Z,67.84
2022-11-09T10:19:50.728Z,67.50
2022-11-09T10:24:08.187Z,66.88
2022-11-09T10:28:15.409Z,68.04
2022-11-09T10:32:22.252Z,67.50
2022-11-09T10:36:30.557Z,66.52
2022-11-09T10:40:40.645Z,66.58
2022-11-09T10:44:44.191Z,66.71
2022-11-09T10:48:49.258Z,67.11
2022-11-09T10:52:52.812Z,66.33
2022-11-09T10:57:13.401Z,66.62
2022-11-09T11:01:20.324Z,65.75
2022-11-09T11:05:29.387Z,66.12
2022-11-09T11:09:32.893Z,65.79
2022-11-09T11:13:36.295Z,66.24
2022-11-09T11:17:41.550Z,65.70
2022-11-09T11:21:46.494Z,66.15
2022-11-09T11:26:04.038Z,66.02
2022-11-09T11:30:14.297Z,65.81
2022-11-09T11:34:38.410Z,63.69
2022-11-09T11:38:52.511Z,62.71
2022-11-09T11:43:18.499Z,63.83
2022-11-09T11:47:29.449Z,62.44
2022-11-09T11:51:42.315Z,62.70
2022-11-09T11:56:06.111Z,65.18
2022-11-09T12:00:15.701Z,63.09
2022-11-09T12:04:37.370Z,63.77
2022-11-09T12:08:55.767Z,63.17
2022-11-09T12:13:15.437Z,64.14
2022-11-09T12:21:34.126Z,63.07
2022-11-09T12:25:46.018Z,63.68
2022-11-09T12:30:02.944Z,62.72
2022-11-09T12:34:15.504Z,63.29
2022-11-09T12:38:23.575Z,63.73
2022-11-09T12:42:33.114Z,64.49
2022-11-09T12:46:42.016Z,64.15
2022-11-09T12:50:45.726Z,64.47
2022-11-09T12:54:51.346Z,63.14
2022-11-09T12:58:56.477Z,63.21
2022-11-09T13:03:03.905Z,63.22
2022-11-09T13:07:31.754Z,64.33
2022-11-09T13:11:40.592Z,63.81
2022-11-09T13:16:08.267Z,63.71
2022-11-09T13:20:56.807Z,63.63
2022-11-09T13:25:02.977Z,64.48
2022-11-09T13:29:12.648Z,64.89
2022-11-09T13:33:25.665Z,65.13
2022-11-09T13:37:49.502Z,65.32
2022-11-09T13:41:55.295Z,65.00
2022-11-09T13:46:01.192Z,65.32
2022-11-09T13:50:18.090Z,65.67
2022-11-09T13:54:32.920Z,65.57
2022-11-09T13:58:40.415Z,65.06
2022-11-09T14:02:54.188Z,65.20
2022-11-09T14:07:04.801Z,64.78
2022-11-09T14:11:27.480Z,64.75
2022-11-09T14:15:45.028Z,65.05
2022-11-09T14:20:00.706Z,64.91
2022-11-09T14:24:05.636Z,65.26
2022-11-09T14:28:21.807Z,65.53
2022-11-09T14:32:32.883Z,65.51
2022-11-09T14:36:36.591Z,65.29
2022-11-09T14:40:45.827Z,64.97
2022-11-09T14:44:50.264Z,65.18
2022-11-09T14:48:58.047Z,64.84
2022-11-09T14:53:02.602Z,64.81
2022-11-09T14:57:06.474Z,65.26
2022-11-09T15:01:17.371Z,65.29
2022-11-09T15:05:36.058Z,65.46
2022-11-09T15:09:47.007Z,66.21
2022-11-09T15:13:50.566Z,66.41
2022-11-09T15:17:54.175Z,66.61
2022-11-09T15:21:59.614Z,66.88
2022-11-09T15:26:03.179Z,67.15
2022-11-09T15:30:07.244Z,67.04
2022-11-09T15:34:23.360Z,67.23
2022-11-09T15:38:34.120Z,67.75
2022-11-09T15:42:38.475Z,67.96
2022-11-09T15:46:47.395Z,67.97
2022-11-09T15:50:51.145Z,67.93
2022-11-09T15:54:55.800Z,68.10
2022-11-09T15:58:59.399Z,68.09
2022-11-09T16:03:02.870Z,67.90
2022-11-09T16:07:06.511Z,67.86
2022-11-09T16:11:13.045Z,68.22
2022-11-09T16:15:16.653Z,68.04
2022-11-09T16:19:20.175Z,68.43
2022-11-09T16:23:23.203Z,68.13
2022-11-09T16:27:48.949Z,68.31
2022-11-09T16:31:53.024Z,68.50
2022-11-09T16:35:58.964Z,68.06
2022-11-09T16:40:03.923Z,68.29
2022-11-09T16:44:09.180Z,68.47
2022-11-09T16:48:14.321Z,68.39
2022-11-09T16:52:18.167Z,68.53
2022-11-09T16:56:21.850Z,68.37
2022-11-09T17:00:37.667Z,68.47
2022-11-09T17:04:49.843Z,68.38
2022-11-09T17:08:57.928Z,68.44
2022-11-09T17:13:01.468Z,68.38
2022-11-09T17:17:06.327Z,68.45
2022-11-09T17:21:11.680Z,68.96
2022-11-09T17:25:15.730Z,69.16
2022-11-09T17:29:19.429Z,68.81
2022-11-09T17:33:25.295Z,68.65
2022-11-09T17:37:28.903Z,68.56
2022-11-09T17:41:32.633Z,68.70
2022-11-09T17:45:36.354Z,68.93
2022-11-09T17:49:41.582Z,69.13
2022-11-09T17:53:45.584Z,69.50
2022-11-09T17:57:49.068Z,69.22
2022-11-09T18:01:52.876Z,69.22
2022-11-09T18:05:57.954Z,68.69
2022-11-09T18:10:03.796Z,69.20
2022-11-09T18:14:07.001Z,69.28
2022-11-09T18:18:10.597Z,69.33
2022-11-09T18:22:15.522Z,69.49
2022-11-09T18:26:20.889Z,69.52
2022-11-09T18:30:24.652Z,69.82
2022-11-09T18:34:28.173Z,69.76
2022-11-09T18:38:33.544Z,69.57
2022-11-09T18:42:37.373Z,69.69
2022-11-09T18:46:40.863Z,69.35
2022-11-09T18:50:44.590Z,69.43
2022-11-09T18:54:50.223Z,69.39
2022-11-09T18:58:55.693Z,69.79
2022-11-09T19:02:58.698Z,69.42
2022-11-09T19:07:02.438Z,69.75
2022-11-09T19:11:11.008Z,70.00
2022-11-09T19:15:14.328Z,69.59
2022-11-09T19:19:18.361Z,70.00
2022-11-09T19:23:22.009Z,69.92
2022-11-09T19:27:29.084Z,70.02
2022-11-09T19:31:34.303Z,70.12
2022-11-09T19:35:37.785Z,69.90
2022-11-09T19:39:45.345Z,69.88
2022-11-09T19:43:52.873Z,69.90
2022-11-09T19:47:56.356Z,69.79
2022-11-09T19:52:00.844Z,69.72
2022-11-09T19:56:09.363Z,70.03
2022-11-09T20:00:18.063Z,70.03
2022-11-09T20:04:21.333Z,69.94
2022-11-09T20:08:26.043Z,69.88
2022-11-09T20:12:46.885Z,69.93
2022-11-09T20:16:55.534Z,69.53
2022-11-09T20:21:00.221Z,69.18
2022-11-09T20:25:07.342Z,69.43
2022-11-09T20:29:12.935Z,69.33
2022-11-09T20:33:19.195Z,69.83
2022-11-09T20:37:26.287Z,70.21
2022-11-09T20:41:29.633Z,70.03
2022-11-09T20:45:33.151Z,69.83
2022-11-09T20:49:37.788Z,69.98
2022-11-09T20:53:41.327Z,70.50
2022-11-09T20:57:44.453Z,70.56
2022-11-09T21:01:49.091Z,70.54
2022-11-09T21:05:59.319Z,70.52
2022-11-09T21:10:03.074Z,70.44
2022-11-09T21:14:06.204Z,70.29
2022-11-09T21:18:10.127Z,70.22
2022-11-09T21:22:15.596Z,70.37
2022-11-09T21:26:35.973Z,70.47
2022-11-09T21:30:39.600Z,70.36
2022-11-09T21:34:43.023Z,70.55
2022-11-09T21:38:47.527Z,70.17
2022-11-09T21:42:50.874Z,70.29
2022-11-09T21:46:54.480Z,70.12
2022-11-09T21:50:59.060Z,70.32
2022-11-09T21:55:04.051Z,70.58
2022-11-09T21:59:08.071Z,70.30
2022-11-09T22:03:11.220Z,70.63
2022-11-09T22:07:15.035Z,70.44
2022-11-09T22:11:21.657Z,70.49
2022-11-09T22:15:42.306Z,70.43
2022-11-09T22:20:03.688Z,70.42
2022-11-09T22:24:07.922Z,70.97
2022-11-09T22:28:13.200Z,70.51
2022-11-09T22:32:16.644Z,70.75
2022-11-09T22:36:20.726Z,70.70
2022-11-09T22:40:24.998Z,70.88
2022-11-09T22:44:29.878Z,70.87
2022-11-09T22:48:34.159Z,71.03
2022-11-09T22:52:37.663Z,70.90
2022-11-09T22:56:41.190Z,70.92
2022-11-09T23:00:45.780Z,70.87
2022-11-09T23:04:49.061Z,71.02
2022-11-09T23:08:52.883Z,70.71
2022-11-09T23:12:56.035Z,70.75
2022-11-09T23:17:01.639Z,70.63
2022-11-09T23:21:05.176Z,70.65
2022-11-09T23:25:27.360Z,70.70
2022-11-09T23:29:30.892Z,70.67
2022-11-09T23:33:36.025Z,70.96
2022-11-09T23:37:40.596Z,70.97
2022-11-09T23:41:44.084Z,71.22
2022-11-09T23:45:47.862Z,71.07
2022-11-09T23:49:52.708Z,71.19
2022-11-09T23:53:56.175Z,71.15
2022-11-09T23:58:02.388Z,71.22
